createdAt,value
2018-06-02T00:02:13.291Z,66.07
2018-06-02T00:04:40.808Z,69.53
2018-06-02T00:07:08.368Z,70.28
2018-06-02T00:09:35.886Z,70.90
2018-06-02T00:12:04.170Z,62.15
2018-06-02T00:14:31.695Z,63.95
2018-06-02T00:16:59.212Z,64.18
2018-06-02T00:19:26.736Z,59.60
2018-06-02T00:21:55.027Z,65.78
2018-06-02T00:24:22.600Z,61.65
2018-06-02T00:26:50.120Z,64.47
2018-06-02T00:29:17.708Z,62.25
2018-06-02T00:31:45.256Z,64.90
2018-06-02T00:34:12.798Z,56.00
2018-06-02T00:36:40.323Z,60.55
2018-06-02T00:39:07.916Z,62.67
2018-06-02T00:41:35.441Z,58.03
2018-06-02T00:44:02.990Z,65.32
2018-06-02T00:46:30.515Z,61.17
2018-06-02T00:48:58.060Z,61.40
2018-06-02T00:51:25.588Z,63.28
2018-06-02T00:53:53.106Z,59.10
2018-06-02T00:56:20.682Z,58.53
2018-06-02T00:58:48.195Z,66.07
2018-06-02T01:01:15.720Z,66.03
2018-06-02T01:03:43.243Z,55.75
2018-06-02T01:06:10.766Z,64.05
2018-06-02T01:08:38.291Z,63.10
2018-06-02T01:11:05.806Z,60.15
2018-06-02T01:13:33.324Z,64.07
2018-06-02T01:16:00.846Z,79.10
2018-06-02T01:18:28.374Z,102.12
2018-06-02T01:20:55.972Z,103.22
2018-06-02T01:23:23.452Z,111.32
2018-06-02T01:25:50.975Z,119.13
2018-06-02T01:28:18.502Z,131.60
2018-06-02T01:30:46.030Z,120.50
2018-06-02T01:33:13.555Z,124.47
2018-06-02T01:35:41.852Z,113.43
2018-06-02T01:38:09.376Z,132.00
2018-06-02T01:40:36.927Z,116.05
2018-06-02T01:43:04.448Z,107.47
2018-06-02T01:45:31.999Z,111.50
2018-06-02T01:47:59.527Z,104.75
2018-06-02T01:50:27.060Z,105.10
2018-06-02T01:52:54.595Z,111.68
2018-06-02T01:55:22.806Z,100.38
2018-06-02T01:57:51.091Z,98.03
2018-06-02T02:00:18.624Z,108.55
2018-06-02T02:02:46.147Z,103.65
2018-06-02T02:05:13.665Z,94.62
2018-06-02T02:07:41.195Z,95.18
2018-06-02T02:10:09.335Z,108.57
2018-06-02T02:12:36.866Z,104.32
2018-06-02T02:15:04.419Z,103.53
2018-06-02T02:17:31.945Z,107.60
2018-06-02T02:19:59.476Z,114.55
2018-06-02T02:22:27.005Z,105.05
2018-06-02T02:24:54.540Z,104.95
2018-06-02T02:27:22.073Z,117.03
2018-06-02T02:29:49.610Z,110.12
2018-06-02T02:32:21.053Z,125.43
2018-06-02T02:34:49.435Z,123.07
2018-06-02T02:37:17.723Z,122.25
2018-06-02T02:39:45.255Z,129.45
2018-06-02T02:42:12.779Z,129.25
2018-06-02T02:44:40.307Z,129.63
2018-06-02T02:47:07.839Z,132.43
2018-06-02T02:49:35.364Z,134.68
2018-06-02T02:52:02.882Z,126.53
2018-06-02T02:54:30.408Z,124.12
2018-06-02T02:56:57.948Z,139.55
2018-06-02T02:59:25.474Z,124.85
2018-06-02T03:01:53.026Z,132.48
2018-06-02T03:04:20.555Z,143.62
2018-06-02T03:06:48.106Z,132.77
2018-06-02T03:09:15.646Z,139.73
2018-06-02T03:11:43.190Z,128.12
2018-06-02T03:14:10.723Z,123.62
2018-06-02T03:16:38.270Z,123.95
2018-06-02T03:19:05.805Z,117.60
2018-06-02T03:21:33.352Z,120.93
2018-06-02T03:24:00.871Z,94.93
2018-06-02T03:26:28.418Z,96.63
2018-06-02T03:28:56.706Z,97.97
2018-06-02T03:31:24.276Z,95.57
2018-06-02T03:33:51.792Z,87.82
2018-06-02T03:36:19.315Z,94.93
2018-06-02T03:38:46.838Z,78.53
2018-06-02T03:41:14.364Z,89.53
2018-06-02T03:43:41.879Z,80.35
2018-06-02T03:46:09.403Z,71.35
2018-06-02T03:48:36.923Z,76.28
2018-06-02T03:51:04.447Z,69.95
2018-06-02T03:53:31.978Z,60.40
2018-06-02T03:55:59.519Z,58.58
2018-06-02T03:58:27.047Z,59.63
2018-06-02T04:00:54.568Z,57.17
2018-06-02T04:03:22.117Z,55.30
2018-06-02T04:05:49.651Z,55.15
2018-06-02T04:08:18.167Z,53.45
2018-06-02T04:10:45.794Z,53.25
2018-06-02T04:13:13.315Z,51.22
2018-06-02T04:15:40.838Z,54.00
2018-06-02T04:18:08.363Z,55.00
2018-06-02T04:20:35.875Z,49.55
2018-06-02T04:23:03.390Z,48.70
2018-06-02T04:25:30.931Z,48.92
2018-06-02T04:27:58.450Z,49.78
2018-06-02T04:30:26.749Z,50.22
2018-06-02T04:32:54.263Z,47.35
2018-06-02T04:35:21.788Z,47.05
2018-06-02T04:37:49.311Z,45.45
2018-06-02T04:40:17.608Z,45.33
2018-06-02T04:42:45.132Z,45.55
2018-06-02T04:45:12.648Z,43.87
2018-06-02T04:47:41.120Z,42.08
2018-06-02T04:50:08.645Z,40.40
2018-06-02T04:52:36.960Z,39.05
2018-06-02T04:55:04.511Z,37.55
2018-06-02T04:57:32.052Z,39.95
2018-06-02T05:00:00.339Z,41.17
2018-06-02T05:02:27.887Z,40.42
2018-06-02T05:04:55.398Z,39.25
2018-06-02T05:07:22.942Z,38.10
2018-06-02T05:09:50.463Z,40.90
2018-06-02T05:12:17.982Z,38.60
2018-06-02T05:14:45.560Z,39.45
2018-06-02T05:17:13.079Z,34.25
2018-06-02T05:19:40.599Z,37.28
2018-06-02T05:22:08.119Z,41.13
2018-06-02T05:24:35.641Z,40.20
2018-06-02T05:27:03.164Z,36.00
2018-06-02T05:29:31.451Z,39.35
2018-06-02T05:31:58.961Z,40.15
2018-06-02T05:34:26.487Z,37.67
2018-06-02T05:36:54.780Z,37.72
2018-06-02T05:39:22.316Z,39.40
2018-06-02T05:41:49.851Z,37.65
2018-06-02T05:44:17.373Z,37.83
2018-06-02T05:46:44.903Z,39.60
2018-06-02T05:49:13.196Z,42.40
2018-06-02T05:51:40.734Z,42.83
2018-06-02T05:54:09.024Z,41.08
2018-06-02T05:56:36.552Z,40.75
2018-06-02T05:59:04.084Z,43.53
2018-06-02T06:01:31.598Z,42.00
2018-06-02T06:03:59.882Z,41.40
2018-06-02T06:06:27.411Z,43.03
2018-06-02T06:08:55.423Z,40.28
2018-06-02T06:11:22.961Z,41.35
2018-06-02T06:13:51.260Z,41.85
2018-06-02T06:16:18.786Z,43.92
2018-06-02T06:18:46.426Z,49.63
2018-06-02T06:21:13.939Z,42.35
2018-06-02T06:23:41.463Z,57.25
2018-06-02T06:26:08.980Z,47.08
2018-06-02T06:28:36.511Z,43.30
2018-06-02T06:31:04.032Z,45.45
2018-06-02T06:33:31.576Z,45.50
2018-06-02T06:35:59.123Z,43.63
2018-06-02T06:38:26.675Z,44.20
2018-06-02T06:40:54.202Z,54.22
2018-06-02T06:43:22.160Z,72.15
2018-06-02T06:45:49.811Z,55.20
2018-06-02T06:48:19.598Z,61.97
2018-06-02T06:50:47.515Z,51.92
2018-06-02T06:53:15.992Z,53.20
2018-06-02T06:55:43.901Z,55.47
2018-06-02T06:58:11.821Z,53.75
2018-06-02T07:00:39.379Z,49.50
2018-06-02T07:03:06.904Z,55.80
2018-06-02T07:05:34.424Z,55.72
2018-06-02T07:08:01.945Z,54.53
2018-06-02T07:10:29.464Z,44.22
2018-06-02T07:12:57.029Z,47.67
2018-06-02T07:15:24.547Z,49.60
2018-06-02T07:17:52.100Z,47.58
2018-06-02T07:20:19.617Z,45.70
2018-06-02T07:22:47.131Z,47.17
2018-06-02T07:25:14.911Z,49.28
2018-06-02T07:27:43.211Z,49.65
2018-06-02T07:30:10.732Z,51.72
2018-06-02T07:32:38.387Z,47.25
2018-06-02T07:35:06.672Z,49.72
2018-06-02T07:37:34.187Z,49.63
2018-06-02T07:42:43.475Z,48.80
2018-06-02T07:45:11.004Z,52.20
2018-06-02T07:47:38.523Z,54.88
2018-06-02T07:50:06.110Z,55.33
2018-06-02T07:52:33.628Z,50.63
2018-06-02T07:55:01.148Z,52.72
2018-06-02T07:57:28.662Z,50.33
2018-06-02T07:59:56.175Z,47.88
2018-06-02T08:02:23.696Z,49.17
2018-06-02T08:04:51.219Z,56.40
2018-06-02T08:07:18.739Z,53.45
2018-06-02T08:09:46.262Z,57.03
2018-06-02T08:12:13.787Z,82.53
2018-06-02T08:14:41.330Z,72.32
2018-06-02T08:17:08.862Z,50.38
2018-06-02T08:19:36.403Z,46.10
2018-06-02T08:22:04.696Z,52.05
2018-06-02T08:24:32.237Z,100.68
2018-06-02T08:26:59.987Z,70.43
2018-06-02T08:29:27.934Z,58.92
2018-06-02T08:31:55.452Z,60.97
2018-06-02T08:34:22.994Z,56.03
2018-06-02T08:36:50.519Z,56.95
2018-06-02T08:39:18.030Z,57.47
2018-06-02T08:41:45.564Z,53.22
2018-06-02T08:44:13.911Z,50.65
2018-06-02T08:46:41.432Z,54.63
2018-06-02T08:49:08.991Z,53.65
2018-06-02T08:51:36.516Z,53.17
2018-06-02T08:54:04.830Z,51.55
2018-06-02T08:56:32.721Z,52.58
2018-06-02T08:59:00.245Z,51.25
2018-06-02T09:01:27.792Z,54.53
2018-06-02T09:03:56.076Z,53.63
2018-06-02T09:06:23.586Z,50.35
2018-06-02T09:08:51.104Z,51.35
2018-06-02T09:11:18.639Z,50.35
2018-06-02T09:13:46.150Z,49.67
2018-06-02T09:16:13.663Z,50.85
2018-06-02T09:18:41.956Z,47.08
2018-06-02T09:21:09.518Z,46.60
2018-06-02T09:23:37.799Z,54.25
2018-06-02T09:26:05.324Z,47.95
2018-06-02T09:28:32.859Z,53.92
2018-06-02T09:31:00.370Z,52.15
2018-06-02T09:33:28.652Z,48.45
2018-06-02T09:35:56.170Z,48.80
2018-06-02T09:38:23.695Z,48.72
2018-06-02T09:40:51.211Z,44.08
2018-06-02T09:43:18.731Z,48.80
2018-06-02T09:45:46.246Z,42.45
2018-06-02T09:48:13.767Z,44.85
2018-06-02T09:50:41.315Z,43.10
2018-06-02T09:53:08.832Z,45.17
2018-06-02T09:55:36.375Z,41.35
2018-06-02T09:58:03.896Z,40.45
2018-06-02T10:00:31.440Z,45.88
2018-06-02T10:02:58.960Z,37.20
2018-06-02T10:05:26.498Z,41.00
2018-06-02T10:07:54.014Z,35.15
2018-06-02T10:10:21.562Z,36.05
2018-06-02T10:12:49.074Z,37.95
2018-06-02T10:15:16.592Z,38.25
2018-06-02T10:17:44.115Z,34.17
2018-06-02T10:20:11.634Z,34.17
2018-06-02T10:22:39.155Z,36.13
2018-06-02T10:25:06.679Z,34.42
2018-06-02T10:27:34.208Z,33.55
2018-06-02T10:30:01.745Z,31.08
2018-06-02T10:32:29.276Z,31.37
2018-06-02T10:34:56.787Z,31.98
2018-06-02T10:37:24.311Z,29.55
2018-06-02T10:39:52.603Z,28.33
2018-06-02T10:42:20.167Z,28.65
2018-06-02T10:44:47.687Z,29.40
2018-06-02T10:47:15.205Z,27.90
2018-06-02T10:49:42.723Z,28.45
2018-06-02T10:52:11.164Z,31.55
2018-06-02T10:54:38.695Z,32.65
2018-06-02T10:57:06.220Z,28.75
2018-06-02T10:59:33.743Z,29.23
2018-06-02T11:02:01.287Z,28.83
2018-06-02T11:04:28.804Z,35.47
2018-06-02T11:06:56.318Z,28.40
2018-06-02T11:09:23.842Z,30.23
2018-06-02T11:11:51.367Z,32.78
2018-06-02T11:14:18.888Z,34.25
2018-06-02T11:16:46.416Z,34.63
2018-06-02T11:19:13.944Z,33.53
2018-06-02T11:21:41.476Z,35.78
2018-06-02T11:24:08.990Z,32.60
2018-06-02T11:26:37.271Z,38.05
2018-06-02T11:29:05.548Z,34.35
2018-06-02T11:31:33.988Z,32.45
2018-06-02T11:34:01.507Z,36.00
2018-06-02T11:36:29.158Z,39.88
2018-06-02T11:38:56.680Z,36.80
2018-06-02T11:41:24.228Z,38.78
2018-06-02T11:43:51.754Z,39.65
2018-06-02T11:46:19.296Z,40.08
2018-06-02T11:48:46.815Z,41.42
2018-06-02T11:51:14.355Z,40.75
2018-06-02T11:53:41.870Z,37.92
2018-06-02T11:56:10.156Z,36.30
2018-06-02T11:58:37.682Z,38.67
2018-06-02T12:01:05.214Z,38.55
2018-06-02T12:03:32.734Z,36.28
2018-06-02T12:06:00.257Z,36.78
2018-06-02T12:08:27.790Z,36.25
2018-06-02T12:10:55.303Z,39.53
2018-06-02T12:13:23.591Z,34.05
2018-06-02T12:15:51.116Z,32.58
2018-06-02T12:18:18.635Z,34.30
2018-06-02T12:20:46.156Z,32.35
2018-06-02T12:23:14.439Z,33.80
2018-06-02T12:25:42.722Z,33.45
2018-06-02T12:28:11.009Z,35.10
2018-06-02T12:30:38.547Z,40.30
2018-06-02T12:33:06.845Z,32.58
2018-06-02T12:35:34.366Z,32.90
2018-06-02T12:38:01.894Z,32.88
2018-06-02T12:40:29.423Z,30.30
2018-06-02T12:42:56.955Z,32.58
2018-06-02T12:45:24.463Z,31.70
2018-06-02T12:47:51.984Z,31.12
2018-06-02T12:50:20.268Z,33.47
2018-06-02T12:52:47.795Z,30.85
2018-06-02T12:55:15.323Z,30.70
2018-06-02T12:57:42.835Z,32.22
2018-06-02T13:00:10.355Z,27.52
2018-06-02T13:02:37.884Z,27.10
2018-06-02T13:05:05.408Z,25.35
2018-06-02T13:07:32.915Z,24.85
2018-06-02T13:10:00.431Z,24.95
2018-06-02T13:12:27.955Z,24.92
2018-06-02T13:14:55.470Z,28.48
2018-06-02T13:17:23.772Z,25.75
2018-06-02T13:19:51.292Z,55.10
2018-06-02T13:22:18.835Z,21.85
2018-06-02T13:24:46.367Z,21.48
2018-06-02T13:27:13.912Z,23.90
2018-06-02T13:29:41.430Z,22.95
2018-06-02T13:32:08.947Z,21.25
2018-06-02T13:34:36.463Z,23.45
2018-06-02T13:37:03.979Z,20.77
2018-06-02T13:39:31.499Z,21.35
2018-06-02T13:41:59.025Z,23.25
2018-06-02T13:44:26.546Z,23.10
2018-06-02T13:46:54.071Z,23.02
2018-06-02T13:49:21.596Z,22.92
2018-06-02T13:51:49.122Z,24.08
2018-06-02T13:54:16.636Z,23.17
2018-06-02T13:56:44.158Z,23.17
2018-06-02T13:59:11.676Z,23.27
2018-06-02T14:01:39.200Z,24.12
2018-06-02T14:04:06.726Z,25.88
2018-06-02T14:06:34.248Z,23.15
2018-06-02T14:09:02.549Z,23.00
2018-06-02T14:11:30.074Z,23.73
2018-06-02T14:13:58.390Z,21.48
2018-06-02T14:16:25.907Z,22.10
2018-06-02T14:18:53.419Z,22.37
2018-06-02T14:21:20.943Z,21.87
2018-06-02T14:23:49.935Z,22.73
2018-06-02T14:26:18.226Z,23.12
2018-06-02T14:28:45.746Z,22.23
2018-06-02T14:31:13.530Z,22.13
2018-06-02T14:33:41.045Z,19.10
2018-06-02T14:36:08.562Z,18.45
2018-06-02T14:38:36.106Z,15.07
2018-06-02T14:41:03.630Z,16.30
2018-06-02T14:43:31.152Z,15.35
2018-06-02T14:45:59.290Z,16.25
2018-06-02T14:48:26.826Z,15.52
2018-06-02T14:50:54.338Z,17.17
2018-06-02T14:53:21.875Z,13.55
2018-06-02T14:55:49.386Z,15.60
2018-06-02T14:58:16.927Z,15.40
2018-06-02T15:00:44.445Z,15.52
2018-06-02T15:03:11.995Z,15.20
2018-06-02T15:05:39.526Z,19.00
2018-06-02T15:08:07.048Z,13.98
2018-06-02T15:10:34.578Z,14.38
2018-06-02T15:13:02.100Z,16.40
2018-06-02T15:15:29.623Z,14.63
2018-06-02T15:17:57.903Z,15.73
2018-06-02T15:20:25.438Z,16.37
2018-06-02T15:22:52.959Z,18.05
2018-06-02T15:25:20.483Z,17.05
2018-06-02T15:27:48.763Z,18.33
2018-06-02T15:30:16.288Z,16.65
2018-06-02T15:32:44.013Z,17.83
2018-06-02T15:35:11.526Z,17.23
2018-06-02T15:37:39.208Z,17.48
2018-06-02T15:40:06.751Z,18.73
2018-06-02T15:42:34.282Z,19.62
2018-06-02T15:45:03.247Z,19.15
2018-06-02T15:47:30.792Z,19.37
2018-06-02T15:49:58.331Z,20.40
2018-06-02T15:52:25.858Z,20.73
2018-06-02T15:54:53.418Z,19.83
2018-06-02T15:57:22.095Z,19.25
2018-06-02T15:59:49.619Z,17.25
2018-06-02T16:02:17.147Z,16.05
2018-06-02T16:04:45.358Z,17.27
2018-06-02T16:07:12.871Z,18.08
2018-06-02T16:09:40.398Z,19.20
2018-06-02T16:12:08.275Z,19.65
2018-06-02T16:14:35.797Z,20.75
2018-06-02T16:17:04.079Z,20.10
2018-06-02T16:19:31.603Z,18.62
2018-06-02T16:21:59.169Z,17.00
2018-06-02T16:24:26.646Z,21.67
2018-06-02T16:26:54.967Z,19.58
2018-06-02T16:29:22.487Z,18.52
2018-06-02T16:31:50.024Z,18.23
2018-06-02T16:34:17.559Z,17.35
2018-06-02T16:36:45.703Z,17.83
2018-06-02T16:39:13.240Z,17.25
2018-06-02T16:41:40.751Z,15.80
2018-06-02T16:44:08.583Z,18.00
2018-06-02T16:46:36.112Z,15.38
2018-06-02T16:49:03.642Z,17.10
2018-06-02T16:51:31.170Z,17.33
2018-06-02T16:53:58.694Z,17.40
2018-06-02T16:56:26.219Z,17.02
2018-06-02T16:58:53.746Z,15.70
2018-06-02T17:01:21.271Z,16.83
2018-06-02T17:03:48.795Z,18.58
2018-06-02T17:06:16.331Z,20.65
2018-06-02T17:08:43.847Z,20.55
2018-06-02T17:11:11.370Z,23.12
2018-06-02T17:13:38.895Z,21.77
2018-06-02T17:16:07.423Z,23.67
2018-06-02T17:18:34.939Z,22.87
2018-06-02T17:21:02.476Z,21.55
2018-06-02T17:23:29.991Z,21.02
2018-06-02T17:25:57.513Z,21.90
2018-06-02T17:28:25.039Z,22.02
2018-06-02T17:30:52.611Z,20.40
2018-06-02T17:33:20.127Z,20.80
2018-06-02T17:35:47.711Z,20.75
2018-06-02T17:38:15.247Z,21.92
2018-06-02T17:40:42.770Z,22.75
2018-06-02T17:43:10.292Z,22.13
2018-06-02T17:45:37.807Z,22.02
2018-06-02T17:48:05.371Z,21.30
2018-06-02T17:50:32.894Z,22.60
2018-06-02T17:53:01.047Z,19.85
2018-06-02T17:55:28.563Z,21.37
2018-06-02T17:57:56.087Z,20.88
2018-06-02T18:00:23.607Z,21.67
2018-06-02T18:02:51.128Z,22.05
2018-06-02T18:05:19.423Z,21.20
2018-06-02T18:07:46.957Z,20.80
2018-06-02T18:10:15.383Z,19.80
2018-06-02T18:12:43.121Z,19.73
2018-06-02T18:15:11.527Z,18.15
2018-06-02T18:17:39.714Z,21.37
2018-06-02T18:20:07.256Z,20.40
2018-06-02T18:22:34.811Z,20.15
2018-06-02T18:25:03.295Z,19.65
2018-06-02T18:27:30.867Z,19.92
2018-06-02T18:29:59.113Z,20.08
2018-06-02T18:32:27.394Z,20.23
2018-06-02T18:34:55.680Z,19.02
2018-06-02T18:37:23.198Z,18.65
2018-06-02T18:39:50.711Z,19.67
2018-06-02T18:42:18.227Z,22.27
2018-06-02T18:44:46.532Z,20.37
2018-06-02T18:47:14.063Z,19.27
2018-06-02T18:49:41.596Z,19.77
2018-06-02T18:52:09.116Z,21.60
2018-06-02T18:54:36.638Z,19.55
2018-06-02T18:57:04.159Z,19.27
2018-06-02T18:59:31.676Z,19.95
2018-06-02T19:01:59.958Z,19.83
2018-06-02T19:04:28.238Z,19.48
2018-06-02T19:06:56.523Z,20.00
2018-06-02T19:09:24.043Z,22.08
2018-06-02T19:11:51.565Z,20.30
2018-06-02T19:14:19.100Z,20.80
2018-06-02T19:16:46.631Z,20.42
2018-06-02T19:19:14.151Z,21.58
2018-06-02T19:21:41.675Z,21.77
2018-06-02T19:24:09.207Z,20.65
2018-06-02T19:26:36.730Z,20.52
2018-06-02T19:29:04.284Z,23.60
2018-06-02T19:31:31.876Z,20.95
2018-06-02T19:33:59.400Z,22.23
2018-06-02T19:36:26.923Z,21.35
2018-06-02T19:38:54.454Z,27.00
2018-06-02T19:41:21.985Z,21.55
2018-06-02T19:43:49.509Z,22.55
2018-06-02T19:46:17.031Z,22.37
2018-06-02T19:48:44.563Z,23.25
2018-06-02T19:51:12.091Z,26.23
2018-06-02T19:53:40.372Z,24.20
2018-06-02T19:56:07.915Z,30.33
2018-06-02T19:58:35.470Z,28.08
2018-06-02T20:01:03.033Z,25.55
2018-06-02T20:03:31.327Z,27.52
2018-06-02T20:05:58.886Z,24.17
2018-06-02T20:08:27.427Z,24.63
2018-06-02T20:10:54.958Z,26.25
2018-06-02T20:13:22.471Z,26.70
2018-06-02T20:15:49.994Z,25.88
2018-06-02T20:18:17.530Z,26.77
2018-06-02T20:20:45.056Z,27.20
2018-06-02T20:23:12.570Z,31.05
2018-06-02T20:25:40.083Z,27.52
2018-06-02T20:28:08.366Z,27.60
2018-06-02T20:30:35.887Z,26.50
2018-06-02T20:33:03.411Z,29.00
2018-06-02T20:35:30.931Z,29.75
2018-06-02T20:37:58.455Z,31.65
2018-06-02T20:40:25.975Z,30.02
2018-06-02T20:42:53.511Z,31.48
2018-06-02T20:45:21.034Z,30.77
2018-06-02T20:47:48.589Z,29.42
2018-06-02T20:50:16.098Z,33.78
2018-06-02T20:52:43.614Z,30.33
2018-06-02T20:55:11.131Z,29.25
2018-06-02T20:57:39.414Z,33.30
2018-06-02T21:00:06.939Z,30.67
2018-06-02T21:02:34.481Z,29.98
2018-06-02T21:05:02.032Z,37.38
2018-06-02T21:07:29.551Z,33.80
2018-06-02T21:09:57.075Z,32.50
2018-06-02T21:12:24.588Z,35.95
2018-06-02T21:14:52.106Z,36.38
2018-06-02T21:17:19.914Z,34.92
2018-06-02T21:19:47.432Z,35.28
2018-06-02T21:22:14.960Z,34.88
2018-06-02T21:24:42.478Z,34.10
2018-06-02T21:27:09.995Z,32.60
2018-06-02T21:29:37.515Z,38.70
2018-06-02T21:32:05.048Z,36.58
2018-06-02T21:34:33.337Z,33.03
2018-06-02T21:37:00.872Z,37.90
2018-06-02T21:39:28.403Z,38.80
2018-06-02T21:41:55.943Z,36.58
2018-06-02T21:44:23.466Z,38.20
2018-06-02T21:46:50.992Z,38.08
2018-06-02T21:49:18.511Z,39.00
2018-06-02T21:51:46.031Z,40.78
2018-06-02T21:54:13.567Z,34.05
2018-06-02T21:56:41.082Z,39.33
2018-06-02T21:59:08.607Z,38.88
2018-06-02T22:01:36.124Z,39.78
2018-06-02T22:04:03.639Z,40.25
2018-06-02T22:06:31.918Z,43.38
2018-06-02T22:09:00.206Z,38.90
2018-06-02T22:11:28.495Z,40.42
2018-06-02T22:13:56.006Z,41.15
2018-06-02T22:16:23.525Z,35.53
2018-06-02T22:18:51.058Z,39.50
2018-06-02T22:21:19.334Z,40.40
2018-06-02T22:23:47.616Z,39.58
2018-06-02T22:26:15.898Z,39.92
2018-06-02T22:28:43.420Z,40.58
2018-06-02T22:31:10.941Z,41.20
2018-06-02T22:33:38.462Z,40.78
2018-06-02T22:36:05.986Z,42.40
2018-06-02T22:38:33.494Z,40.33
2018-06-02T22:41:01.030Z,40.67
2018-06-02T22:43:28.550Z,40.58
2018-06-02T22:45:56.956Z,39.10
2018-06-02T22:48:24.480Z,39.22
2018-06-02T22:50:51.998Z,39.30
2018-06-02T22:53:20.072Z,39.53
2018-06-02T22:55:47.586Z,40.70
2018-06-02T22:58:15.645Z,41.45
2018-06-02T23:00:43.171Z,43.33
2018-06-02T23:03:10.690Z,42.40
2018-06-02T23:05:38.207Z,46.17
2018-06-02T23:08:05.736Z,42.88
2018-06-02T23:10:34.018Z,42.40
2018-06-02T23:13:01.563Z,44.33
2018-06-02T23:15:29.102Z,44.38
2018-06-02T23:17:56.650Z,47.00
2018-06-02T23:20:24.168Z,40.90
2018-06-02T23:22:51.687Z,42.47
2018-06-02T23:25:19.203Z,42.03
2018-06-02T23:27:46.724Z,44.70
2018-06-02T23:30:14.247Z,46.10
2018-06-02T23:32:41.771Z,40.58
2018-06-02T23:35:10.115Z,40.35
2018-06-02T23:37:37.631Z,44.75
2018-06-02T23:40:05.155Z,43.10
2018-06-02T23:42:32.667Z,44.08
2018-06-02T23:45:00.191Z,44.83
2018-06-02T23:47:28.511Z,40.72
2018-06-02T23:49:56.035Z,42.38
2018-06-02T23:52:24.327Z,44.97
2018-06-02T23:54:51.851Z,43.67
2018-06-02T23:57:19.414Z,46.70
2018-06-02T23:59:47.703Z,45.38
